createdAt,value
2019-05-14T00:00:13.535Z,66.44
2019-05-14T00:02:46.939Z,66.43
2019-05-14T00:05:15.887Z,66.23
2019-05-14T00:07:44.673Z,66.16
2019-05-14T00:10:11.912Z,66.63
2019-05-14T00:12:44.947Z,67.22
2019-05-14T00:15:12.024Z,68.05
2019-05-14T00:17:38.271Z,68.93
2019-05-14T00:20:13.175Z,68.74
2019-05-14T00:22:41.733Z,68.35
2019-05-14T00:25:08.218Z,67.55
2019-05-14T00:27:36.104Z,67.44
2019-05-14T00:30:04.523Z,68.03
2019-05-14T00:32:31.778Z,67.97
2019-05-14T00:34:58.101Z,68.85
2019-05-14T00:37:24.398Z,69.98
2019-05-14T00:39:52.131Z,70.12
2019-05-14T00:42:18.695Z,70.23
2019-05-14T00:44:54.510Z,70.35
2019-05-14T00:47:14.085Z,70.27
2019-05-14T00:49:42.525Z,69.62
2019-05-14T00:52:11.511Z,69.76
2019-05-14T00:54:37.502Z,70.38
2019-05-14T00:57:03.963Z,69.98
2019-05-14T00:59:32.230Z,70.53
2019-05-14T01:01:58.746Z,69.90
2019-05-14T01:04:24.971Z,70.09
2019-05-14T01:06:51.317Z,70.40
2019-05-14T01:09:17.439Z,71.32
2019-05-14T01:11:43.701Z,72.23
2019-05-14T01:14:12.020Z,72.61
2019-05-14T01:16:38.301Z,71.80
2019-05-14T01:19:04.699Z,71.57
2019-05-14T01:21:31.341Z,70.82
2019-05-14T01:23:57.654Z,71.15
2019-05-14T01:26:23.999Z,70.65
2019-05-14T01:28:51.339Z,70.42
2019-05-14T01:31:17.958Z,70.87
2019-05-14T01:33:44.351Z,71.28
2019-05-14T01:36:12.372Z,71.20
2019-05-14T01:38:38.981Z,71.67
2019-05-14T01:41:05.519Z,71.74
2019-05-14T01:43:32.308Z,71.25
2019-05-14T01:46:01.616Z,70.90
2019-05-14T01:48:31.139Z,71.75
2019-05-14T01:50:57.377Z,72.84
2019-05-14T01:53:23.929Z,73.95
2019-05-14T01:55:52.008Z,73.31
2019-05-14T01:58:18.742Z,73.73
2019-05-14T02:00:45.408Z,73.29
2019-05-14T02:03:12.194Z,73.77
2019-05-14T02:05:41.720Z,73.33
2019-05-14T02:08:08.352Z,74.43
2019-05-14T02:10:34.817Z,74.36
2019-05-14T02:13:01.989Z,74.47
2019-05-14T02:15:39.587Z,74.88
2019-05-14T02:18:02.388Z,74.53
2019-05-14T02:20:32.171Z,74.14
2019-05-14T02:23:01.324Z,74.90
2019-05-14T02:25:27.405Z,74.61
2019-05-14T02:27:53.556Z,74.19
2019-05-14T02:30:28.522Z,73.64
2019-05-14T02:32:49.822Z,73.46
2019-05-14T02:35:16.192Z,72.59
2019-05-14T02:37:43.470Z,72.95
2019-05-14T02:40:10.346Z,72.97
2019-05-14T02:42:39.646Z,72.92
2019-05-14T02:45:08.953Z,73.12
2019-05-14T02:47:39.325Z,74.12
2019-05-14T02:50:05.001Z,73.77
2019-05-14T02:52:40.239Z,73.53
2019-05-14T02:55:09.417Z,73.42
2019-05-14T02:57:35.873Z,74.17
2019-05-14T03:00:10.083Z,74.01
2019-05-14T03:02:40.047Z,73.95
2019-05-14T03:05:05.270Z,73.93
2019-05-14T03:07:38.988Z,73.88
2019-05-14T03:10:04.693Z,74.04
2019-05-14T03:12:31.849Z,74.04
2019-05-14T03:14:59.520Z,73.95
2019-05-14T03:17:25.908Z,73.80
2019-05-14T03:19:53.427Z,73.65
2019-05-14T03:22:26.455Z,73.92
2019-05-14T03:24:50.196Z,73.48
2019-05-14T03:27:19.349Z,73.10
2019-05-14T03:29:51.710Z,73.11
2019-05-14T03:32:22.438Z,74.40
2019-05-14T03:34:52.122Z,73.81
2019-05-14T03:37:22.655Z,73.95
2019-05-14T03:39:45.262Z,74.11
2019-05-14T03:42:13.387Z,74.62
2019-05-14T03:44:40.280Z,75.16
2019-05-14T03:47:10.166Z,76.10
2019-05-14T03:49:35.270Z,76.72
2019-05-14T03:52:01.859Z,76.20
2019-05-14T03:54:29.824Z,76.08
2019-05-14T03:57:00.120Z,76.49
2019-05-14T03:59:25.168Z,76.95
2019-05-14T04:01:51.750Z,76.79
2019-05-14T04:04:19.442Z,75.67
2019-05-14T04:06:49.712Z,75.47
2019-05-14T04:09:20.125Z,75.11
2019-05-14T04:11:50.145Z,75.59
2019-05-14T04:14:19.859Z,75.96
2019-05-14T04:17:01.309Z,75.78
2019-05-14T04:19:21.574Z,76.40
2019-05-14T04:21:49.424Z,77.14
2019-05-14T04:24:20.144Z,78.12
2019-05-14T04:26:58.456Z,78.08
2019-05-14T04:29:24.492Z,77.91
2019-05-14T04:31:54.068Z,77.81
2019-05-14T04:34:24.171Z,77.92
2019-05-14T04:36:59.091Z,77.26
2019-05-14T04:39:25.323Z,76.19
2019-05-14T04:41:51.614Z,76.48
2019-05-14T04:44:19.853Z,76.49
2019-05-14T04:46:49.337Z,76.10
2019-05-14T04:49:19.716Z,76.49
2019-05-14T04:51:45.188Z,75.68
2019-05-14T04:54:11.554Z,75.74
2019-05-14T04:56:40.046Z,75.81
2019-05-14T04:59:10.053Z,76.00
2019-05-14T05:01:40.114Z,74.78
2019-05-14T05:04:05.809Z,74.40
2019-05-14T05:06:33.527Z,73.64
2019-05-14T05:09:00.355Z,73.14
2019-05-14T05:11:29.174Z,72.29
2019-05-14T05:13:55.377Z,72.05
2019-05-14T05:16:21.762Z,72.27
2019-05-14T05:18:49.189Z,70.98
2019-05-14T05:21:15.882Z,70.99
2019-05-14T05:23:41.981Z,70.19
2019-05-14T05:26:09.141Z,70.18
2019-05-14T05:28:35.707Z,70.51
2019-05-14T05:31:03.262Z,70.65
2019-05-14T05:33:29.588Z,69.68
2019-05-14T05:35:55.973Z,70.23
2019-05-14T05:38:22.113Z,69.91
2019-05-14T05:40:48.702Z,70.34
2019-05-14T05:43:15.098Z,70.28
2019-05-14T05:45:41.414Z,70.07
2019-05-14T05:48:08.210Z,70.24
2019-05-14T05:50:34.624Z,68.70
2019-05-14T05:53:00.726Z,68.74
2019-05-14T05:55:28.772Z,67.31
2019-05-14T05:57:55.181Z,68.04
2019-05-14T06:00:33.744Z,67.06
2019-05-14T06:03:00.006Z,66.67
2019-05-14T06:05:26.232Z,66.89
2019-05-14T06:07:52.526Z,66.67
2019-05-14T06:10:18.847Z,66.28
2019-05-14T06:12:45.021Z,65.29
2019-05-14T06:15:14.258Z,65.79
2019-05-14T06:17:39.545Z,64.77
2019-05-14T06:20:08.388Z,64.80
2019-05-14T06:22:34.471Z,64.17
2019-05-14T06:25:00.617Z,64.67
2019-05-14T06:27:28.800Z,64.58
2019-05-14T06:29:55.201Z,63.62
2019-05-14T06:32:21.415Z,62.64
2019-05-14T06:34:48.841Z,63.22
2019-05-14T06:37:15.304Z,63.18
2019-05-14T06:39:41.526Z,64.05
2019-05-14T06:42:08.818Z,63.48
2019-05-14T06:44:35.121Z,63.35
2019-05-14T06:47:01.324Z,63.53
2019-05-14T06:49:28.964Z,63.39
2019-05-14T06:51:55.338Z,62.85
2019-05-14T06:54:21.421Z,62.65
2019-05-14T06:56:48.938Z,63.43
2019-05-14T06:59:15.346Z,61.30
2019-05-14T07:01:41.579Z,61.02
2019-05-14T07:04:08.828Z,61.09
2019-05-14T07:06:35.200Z,60.17
2019-05-14T07:09:01.521Z,59.46
2019-05-14T07:11:29.345Z,59.46
2019-05-14T07:13:58.077Z,59.73
2019-05-14T07:16:24.341Z,59.73
2019-05-14T07:18:53.910Z,60.22
2019-05-14T07:21:18.852Z,60.22
2019-05-14T07:23:45.121Z,57.71
2019-05-14T07:26:11.453Z,57.71
2019-05-14T07:28:42.011Z,59.03
2019-05-14T07:31:06.048Z,57.19
2019-05-14T07:33:32.375Z,56.03
2019-05-14T07:35:59.340Z,57.27
2019-05-14T07:38:28.253Z,56.69
2019-05-14T07:40:54.207Z,56.63
2019-05-14T07:43:20.468Z,56.66
2019-05-14T07:45:48.902Z,56.30
2019-05-14T07:48:14.857Z,58.02
2019-05-14T07:50:41.178Z,56.61
2019-05-14T07:53:09.009Z,56.24
2019-05-14T07:55:38.506Z,54.75
2019-05-14T07:58:04.448Z,55.86
2019-05-14T08:00:30.981Z,54.52
2019-05-14T08:02:58.167Z,54.25
2019-05-14T08:05:24.699Z,53.17
2019-05-14T08:07:50.862Z,52.48
2019-05-14T08:10:18.616Z,52.12
2019-05-14T08:12:44.935Z,51.96
2019-05-14T08:15:18.293Z,51.17
2019-05-14T08:17:40.160Z,50.78
2019-05-14T08:20:08.965Z,51.05
2019-05-14T08:22:35.575Z,50.62
2019-05-14T08:25:03.489Z,49.97
2019-05-14T08:27:31.157Z,47.90
2019-05-14T08:29:58.934Z,49.11
2019-05-14T08:32:25.396Z,48.31
2019-05-14T08:34:51.527Z,48.37
2019-05-14T08:37:19.152Z,47.06
2019-05-14T08:39:48.522Z,47.54
2019-05-14T08:42:14.360Z,45.75
2019-05-14T08:44:40.725Z,45.57
2019-05-14T08:47:09.323Z,46.34
2019-05-14T08:49:42.437Z,44.59
2019-05-14T08:52:03.458Z,45.24
2019-05-14T08:54:29.581Z,46.83
2019-05-14T08:56:58.260Z,45.13
2019-05-14T08:59:23.955Z,42.92
2019-05-14T09:02:01.886Z,43.93
2019-05-14T09:04:22.236Z,44.74
2019-05-14T09:06:48.747Z,40.96
2019-05-14T09:09:14.724Z,42.95
2019-05-14T09:11:45.165Z,42.67
2019-05-14T09:14:10.883Z,41.52
2019-05-14T09:16:46.165Z,41.87
2019-05-14T09:19:05.967Z,40.48
2019-05-14T09:21:32.229Z,37.28
2019-05-14T09:23:58.834Z,37.25
2019-05-14T09:26:25.166Z,36.20
2019-05-14T09:28:51.381Z,37.34
2019-05-14T09:31:19.597Z,40.46
2019-05-14T09:33:49.157Z,40.84
2019-05-14T09:36:19.409Z,41.01
2019-05-14T09:38:42.889Z,42.60
2019-05-14T09:41:14.915Z,42.80
2019-05-14T09:43:39.316Z,43.85
2019-05-14T09:46:09.006Z,41.93
2019-05-14T09:48:35.282Z,40.10
2019-05-14T09:51:02.488Z,41.39
2019-05-14T09:53:28.988Z,41.36
2019-05-14T09:55:55.350Z,40.81
2019-05-14T09:58:21.659Z,40.06
2019-05-14T10:00:48.645Z,38.71
2019-05-14T10:03:15.070Z,38.97
2019-05-14T10:05:41.518Z,40.12
2019-05-14T10:08:08.950Z,40.16
2019-05-14T10:10:35.524Z,37.85
2019-05-14T10:13:02.050Z,37.56
2019-05-14T10:15:28.801Z,37.66
2019-05-14T10:17:55.321Z,38.33
2019-05-14T10:20:36.371Z,37.34
2019-05-14T10:22:50.709Z,37.31
2019-05-14T10:25:18.150Z,37.23
2019-05-14T10:27:44.549Z,36.48
2019-05-14T10:30:11.243Z,35.48
2019-05-14T10:32:41.357Z,35.63
2019-05-14T10:35:08.396Z,36.37
2019-05-14T10:37:34.490Z,37.80
2019-05-14T10:40:00.940Z,38.30
2019-05-14T10:42:29.351Z,38.97
2019-05-14T10:44:55.321Z,37.84
2019-05-14T10:47:21.684Z,38.27
2019-05-14T10:49:47.898Z,36.21
2019-05-14T10:52:14.260Z,38.37
2019-05-14T10:54:55.028Z,36.66
2019-05-14T10:57:09.711Z,37.93
2019-05-14T10:59:37.356Z,36.10
2019-05-14T11:02:03.791Z,35.40
2019-05-14T11:04:30.417Z,35.48
2019-05-14T11:06:56.752Z,36.35
2019-05-14T11:09:23.019Z,36.78
2019-05-14T11:11:49.551Z,36.58
2019-05-14T11:14:19.055Z,36.24
2019-05-14T11:16:44.017Z,36.04
2019-05-14T11:19:10.274Z,36.70
2019-05-14T11:21:38.987Z,36.13
2019-05-14T11:24:05.065Z,36.85
2019-05-14T11:26:31.956Z,35.53
2019-05-14T11:28:58.663Z,36.48
2019-05-14T11:31:25.095Z,36.67
2019-05-14T11:33:51.349Z,34.55
2019-05-14T11:36:18.776Z,35.97
2019-05-14T11:38:45.329Z,34.48
2019-05-14T11:41:11.534Z,33.31
2019-05-14T11:43:39.785Z,33.19
2019-05-14T11:46:08.419Z,33.19
2019-05-14T11:48:34.183Z,33.54
2019-05-14T11:51:00.621Z,32.92
2019-05-14T11:53:26.921Z,34.04
2019-05-14T11:55:54.420Z,33.29
2019-05-14T11:58:21.540Z,33.86
2019-05-14T12:00:47.988Z,31.63
2019-05-14T12:03:14.202Z,31.29
2019-05-14T12:05:40.533Z,30.64
2019-05-14T12:08:08.645Z,32.21
2019-05-14T12:10:34.974Z,31.09
2019-05-14T12:13:01.237Z,31.95
2019-05-14T12:15:27.490Z,33.41
2019-05-14T12:17:53.804Z,33.48
2019-05-14T12:20:20.159Z,33.14
2019-05-14T12:22:48.695Z,32.15
2019-05-14T12:25:14.756Z,32.40
2019-05-14T12:27:40.979Z,33.99
2019-05-14T12:30:09.659Z,33.20
2019-05-14T12:32:39.189Z,33.37
2019-05-14T12:35:04.892Z,31.57
2019-05-14T12:37:31.142Z,30.61
2019-05-14T12:39:59.045Z,29.95
2019-05-14T12:42:25.677Z,29.71
2019-05-14T12:44:51.903Z,32.01
2019-05-14T12:47:18.928Z,32.64
2019-05-14T12:49:47.879Z,33.16
2019-05-14T12:52:22.201Z,31.91
2019-05-14T12:54:42.932Z,33.01
2019-05-14T12:57:09.210Z,34.35
2019-05-14T12:59:35.446Z,33.13
2019-05-14T13:02:01.796Z,34.00
2019-05-14T13:04:28.625Z,35.04
2019-05-14T13:06:55.091Z,33.13
2019-05-14T13:09:24.224Z,33.60
2019-05-14T13:11:50.345Z,33.53
2019-05-14T13:14:16.577Z,33.98
2019-05-14T13:16:42.895Z,33.90
2019-05-14T13:19:10.379Z,32.31
2019-05-14T13:21:38.848Z,31.16
2019-05-14T13:24:04.627Z,31.77
2019-05-14T13:26:30.959Z,30.46
2019-05-14T13:28:58.860Z,31.79
2019-05-14T13:31:25.283Z,32.81
2019-05-14T13:33:51.473Z,33.91
2019-05-14T13:36:20.566Z,33.32
2019-05-14T13:38:49.049Z,32.67
2019-05-14T13:41:14.399Z,29.95
2019-05-14T13:43:40.639Z,31.54
2019-05-14T13:46:10.381Z,30.70
2019-05-14T13:48:39.590Z,29.97
2019-05-14T13:51:04.996Z,31.74
2019-05-14T13:53:31.304Z,33.06
2019-05-14T13:55:58.057Z,32.41
2019-05-14T13:58:24.243Z,32.63
2019-05-14T14:00:52.056Z,32.72
2019-05-14T14:03:19.951Z,33.22
2019-05-14T14:05:49.533Z,32.55
2019-05-14T14:08:19.122Z,32.61
2019-05-14T14:10:46.596Z,33.70
2019-05-14T14:13:13.043Z,33.30
2019-05-14T14:15:39.403Z,32.97
2019-05-14T14:18:05.623Z,32.05
2019-05-14T14:20:31.875Z,32.24
2019-05-14T14:22:58.719Z,34.04
2019-05-14T14:25:26.153Z,33.28
2019-05-14T14:27:52.379Z,33.90
2019-05-14T14:30:19.433Z,33.82
2019-05-14T14:32:49.263Z,32.96
2019-05-14T14:35:14.552Z,33.81
2019-05-14T14:37:40.972Z,33.57
2019-05-14T14:40:10.091Z,33.41
2019-05-14T14:42:39.573Z,33.80
2019-05-14T14:45:05.691Z,33.48
2019-05-14T14:47:31.926Z,32.83
2019-05-14T14:50:00.408Z,32.34
2019-05-14T14:52:29.163Z,33.79
2019-05-14T14:54:54.420Z,33.42
2019-05-14T14:57:20.688Z,33.30
2019-05-14T14:59:48.515Z,32.46
2019-05-14T15:02:15.242Z,33.31
2019-05-14T15:04:41.608Z,32.78
2019-05-14T15:07:09.732Z,32.15
2019-05-14T15:09:36.110Z,32.91
2019-05-14T15:12:02.771Z,33.66
2019-05-14T15:14:29.787Z,32.83
2019-05-14T15:16:56.349Z,33.60
2019-05-14T15:19:22.721Z,33.97
2019-05-14T15:21:50.051Z,33.94
2019-05-14T15:24:19.340Z,34.58
2019-05-14T15:26:44.641Z,33.78
2019-05-14T15:29:10.886Z,33.45
2019-05-14T15:31:38.581Z,34.04
2019-05-14T15:34:08.735Z,33.21
2019-05-14T15:36:34.208Z,33.51
2019-05-14T15:39:00.456Z,33.25
2019-05-14T15:41:29.466Z,33.60
2019-05-14T15:43:54.903Z,34.00
2019-05-14T15:46:22.520Z,34.08
2019-05-14T15:48:51.640Z,34.21
2019-05-14T15:51:19.502Z,34.19
2019-05-14T15:54:04.960Z,34.12
2019-05-14T15:56:14.518Z,33.85
2019-05-14T15:58:41.113Z,32.29
2019-05-14T16:01:10.135Z,32.13
2019-05-14T16:03:35.565Z,32.21
2019-05-14T16:06:01.805Z,32.51
2019-05-14T16:08:29.552Z,33.10
2019-05-14T16:11:00.073Z,33.91
2019-05-14T16:13:24.462Z,34.50
2019-05-14T16:15:50.945Z,34.03
2019-05-14T16:18:21.648Z,33.56
2019-05-14T16:20:45.578Z,32.74
2019-05-14T16:23:12.067Z,33.01
2019-05-14T16:25:38.305Z,32.69
2019-05-14T16:28:04.634Z,33.72
2019-05-14T16:30:30.944Z,33.45
2019-05-14T16:32:59.643Z,33.62
2019-05-14T16:35:25.434Z,33.20
2019-05-14T16:37:51.561Z,33.36
2019-05-14T16:40:19.267Z,33.59
2019-05-14T16:42:48.321Z,33.64
2019-05-14T16:45:14.315Z,33.19
2019-05-14T16:47:40.571Z,33.33
2019-05-14T16:50:08.901Z,33.13
2019-05-14T16:52:35.326Z,32.63
2019-05-14T16:55:20.241Z,32.60
2019-05-14T16:57:32.683Z,32.57
2019-05-14T16:59:59.122Z,32.83
2019-05-14T17:02:25.302Z,33.02
2019-05-14T17:04:51.594Z,32.44
2019-05-14T17:07:18.273Z,32.78
2019-05-14T17:09:44.925Z,33.59
2019-05-14T17:12:11.021Z,33.05
2019-05-14T17:14:38.534Z,32.89
2019-05-14T17:17:08.883Z,33.76
2019-05-14T17:19:34.268Z,31.94
2019-05-14T17:22:00.441Z,32.21
2019-05-14T17:24:29.179Z,32.34
2019-05-14T17:26:54.938Z,32.56
2019-05-14T17:29:21.506Z,32.45
2019-05-14T17:31:49.321Z,32.64
2019-05-14T17:34:18.390Z,32.48
2019-05-14T17:36:44.841Z,33.07
2019-05-14T17:39:11.187Z,33.64
2019-05-14T17:41:41.684Z,33.50
2019-05-14T17:44:06.144Z,33.12
2019-05-14T17:46:33.545Z,33.57
2019-05-14T17:49:00.556Z,33.42
2019-05-14T17:51:28.528Z,33.70
2019-05-14T17:53:54.874Z,33.75
2019-05-14T17:56:22.940Z,33.83
2019-05-14T17:58:52.449Z,33.82
2019-05-14T18:01:19.085Z,33.84
2019-05-14T18:03:45.691Z,33.68
2019-05-14T18:06:11.954Z,33.79
2019-05-14T18:08:38.443Z,33.89
2019-05-14T18:11:04.803Z,34.01
2019-05-14T18:13:31.295Z,34.02
2019-05-14T18:15:58.047Z,34.35
2019-05-14T18:18:24.815Z,34.39
2019-05-14T18:20:51.166Z,34.86
2019-05-14T18:23:18.526Z,34.77
2019-05-14T18:26:02.750Z,34.50
2019-05-14T18:28:14.089Z,34.83
2019-05-14T18:30:40.366Z,35.25
2019-05-14T18:33:08.004Z,35.87
2019-05-14T18:35:42.259Z,35.05
2019-05-14T18:38:03.875Z,36.06
2019-05-14T18:40:30.107Z,35.48
2019-05-14T18:42:58.678Z,35.02
2019-05-14T18:45:24.867Z,35.26
2019-05-14T18:47:51.320Z,35.37
2019-05-14T18:50:19.595Z,34.86
2019-05-14T18:52:48.370Z,35.34
2019-05-14T18:55:14.375Z,35.25
2019-05-14T18:57:40.656Z,35.54
2019-05-14T19:00:08.356Z,35.80
2019-05-14T19:02:35.117Z,35.79
2019-05-14T19:05:01.535Z,36.39
2019-05-14T19:07:28.779Z,35.85
2019-05-14T19:09:55.159Z,35.94
2019-05-14T19:12:21.429Z,36.27
2019-05-14T19:14:49.274Z,36.38
2019-05-14T19:17:18.528Z,36.25
2019-05-14T19:19:44.251Z,36.73
2019-05-14T19:22:10.627Z,36.79
2019-05-14T19:24:38.251Z,37.08
2019-05-14T19:27:04.988Z,37.63
2019-05-14T19:29:31.251Z,37.86
2019-05-14T19:31:57.593Z,37.93
2019-05-14T19:34:24.020Z,38.00
2019-05-14T19:36:50.363Z,38.08
2019-05-14T19:39:18.793Z,38.85
2019-05-14T19:41:45.160Z,38.59
2019-05-14T19:44:11.415Z,39.40
2019-05-14T19:46:38.623Z,39.68
2019-05-14T19:49:05.211Z,39.69
2019-05-14T19:51:31.334Z,40.35
2019-05-14T19:53:58.549Z,39.87
2019-05-14T19:56:24.816Z,40.61
2019-05-14T19:58:52.161Z,40.84
2019-05-14T20:01:19.369Z,41.23
2019-05-14T20:03:45.974Z,41.28
2019-05-14T20:06:12.321Z,41.87
2019-05-14T20:08:38.781Z,42.04
2019-05-14T20:11:05.316Z,42.68
2019-05-14T20:13:31.718Z,41.50
2019-05-14T20:15:59.076Z,42.10
2019-05-14T20:18:25.602Z,41.65
2019-05-14T20:20:51.916Z,41.75
2019-05-14T20:23:18.601Z,42.26
2019-05-14T20:25:45.128Z,42.35
2019-05-14T20:28:11.376Z,42.15
2019-05-14T20:30:38.597Z,42.74
2019-05-14T20:33:05.413Z,43.12
2019-05-14T20:35:35.040Z,46.76
2019-05-14T20:37:59.971Z,45.37
2019-05-14T20:40:28.369Z,46.62
2019-05-14T20:42:54.342Z,43.57
2019-05-14T20:45:20.833Z,43.39
2019-05-14T20:47:48.096Z,44.02
2019-05-14T20:50:15.663Z,43.07
2019-05-14T20:52:41.916Z,43.40
2019-05-14T20:55:09.545Z,43.21
2019-05-14T20:57:38.346Z,43.26
2019-05-14T21:00:07.575Z,43.19
2019-05-14T21:02:33.999Z,43.53
2019-05-14T21:05:04.291Z,43.51
2019-05-14T21:07:28.961Z,44.88
2019-05-14T21:09:55.451Z,44.95
2019-05-14T21:12:21.709Z,44.76
2019-05-14T21:14:49.116Z,44.49
2019-05-14T21:17:15.655Z,44.78
2019-05-14T21:19:41.895Z,44.98
2019-05-14T21:22:08.515Z,44.78
2019-05-14T21:24:35.065Z,45.12
2019-05-14T21:27:01.211Z,45.68
2019-05-14T21:29:30.542Z,45.40
2019-05-14T21:31:56.653Z,45.87
2019-05-14T21:34:22.763Z,46.03
2019-05-14T21:36:48.949Z,45.81
2019-05-14T21:39:16.269Z,46.12
2019-05-14T21:41:42.446Z,46.30
2019-05-14T21:44:10.534Z,45.80
2019-05-14T21:46:39.506Z,45.80
2019-05-14T21:49:07.655Z,45.96
2019-05-14T21:51:34.475Z,46.47
2019-05-14T21:54:00.752Z,46.68
2019-05-14T21:56:29.129Z,46.68
2019-05-14T21:58:55.403Z,46.92
2019-05-14T22:01:22.008Z,46.35
2019-05-14T22:03:48.634Z,46.45
2019-05-14T22:06:15.279Z,46.25
2019-05-14T22:08:43.553Z,46.30
2019-05-14T22:11:10.985Z,46.58
2019-05-14T22:13:39.480Z,46.46
2019-05-14T22:16:08.213Z,46.47
2019-05-14T22:18:34.314Z,46.64
2019-05-14T22:21:03.508Z,47.51
2019-05-14T22:23:29.719Z,47.51
2019-05-14T22:25:58.177Z,47.40
2019-05-14T22:28:24.458Z,47.73
2019-05-14T22:30:50.838Z,47.75
2019-05-14T22:33:18.943Z,47.69
2019-05-14T22:35:48.598Z,47.69
2019-05-14T22:38:14.907Z,47.84
2019-05-14T22:40:42.146Z,48.52
2019-05-14T22:43:09.623Z,48.52
2019-05-14T22:45:36.312Z,48.60
2019-05-14T22:48:04.692Z,48.53
2019-05-14T22:50:33.419Z,49.17
2019-05-14T22:53:00.304Z,49.00
2019-05-14T22:55:28.971Z,49.15
2019-05-14T22:57:55.077Z,49.44
2019-05-14T23:00:21.403Z,49.69
2019-05-14T23:02:48.743Z,49.71
2019-05-14T23:05:15.194Z,49.33
2019-05-14T23:07:41.304Z,49.31
2019-05-14T23:10:08.983Z,49.44
2019-05-14T23:12:35.570Z,49.17
2019-05-14T23:15:02.193Z,48.85
2019-05-14T23:17:28.597Z,48.77
2019-05-14T23:19:55.098Z,48.85
2019-05-14T23:22:21.254Z,49.85
2019-05-14T23:24:47.342Z,49.91
2019-05-14T23:27:13.672Z,49.58
2019-05-14T23:29:39.960Z,49.58
2019-05-14T23:32:08.177Z,50.27
2019-05-14T23:34:34.564Z,50.13
2019-05-14T23:37:00.765Z,50.75
2019-05-14T23:39:28.747Z,51.01
2019-05-14T23:41:55.396Z,51.02
2019-05-14T23:44:21.699Z,51.07
2019-05-14T23:46:49.251Z,51.37
2019-05-14T23:49:15.442Z,51.21
2019-05-14T23:51:41.853Z,51.33
2019-05-14T23:54:08.760Z,52.18
2019-05-14T23:56:38.426Z,51.53
2019-05-14T23:59:05.032Z,51.68
